Time;durP1;ratioP1;P1;durP2;ratioP2;P2;SDS_P1;SDS_P2;PMS_P1;PMS_P2;Temp;Humidity;BMP_temperature;BMP_pressure;BME280_temperature;BME280_humidity;BME280_pressure;Samples;Min_cycle;Max_cycle;Signal;HPM_P1;HPM_P2
2023/11/21 00:00:27;;;;;;;0.17;0.17;;;;;;;5.43;100.00;95344.41;1038118;28;20079;-73
2023/11/21 00:00:58;;;;;;;0.00;0.00;;;;;;;5.52;100.00;95346.56;1038144;28;20271;-74
2023/11/21 00:01:29;;;;;;;2.25;1.35;;;;;;;5.51;100.00;95345.00;1031192;28;20034;-73
2023/11/21 00:01:59;;;;;;;5.38;0.52;;;;;;;5.53;100.00;95355.94;1034457;28;20277;-75
2023/11/21 00:02:30;;;;;;;0.00;0.00;;;;;;;5.51;100.00;95338.00;1034395;28;20034;-73
2023/11/21 00:03:00;;;;;;;0.00;0.00;;;;;;;5.46;100.00;95331.91;1030555;28;20073;-74
2023/11/21 00:03:31;;;;;;;1.85;0.20;;;;;;;5.54;100.00;95344.53;1034395;28;20029;-75
2023/11/21 00:04:01;;;;;;;0.00;0.00;;;;;;;5.54;100.00;95341.94;1034514;28;20036;-73
2023/11/21 00:04:32;;;;;;;0.00;0.00;;;;;;;5.55;100.00;95343.50;1034674;28;20022;-74
2023/11/21 00:05:03;;;;;;;0.00;0.00;;;;;;;5.53;100.00;95340.34;1030843;28;20023;-74
2023/11/21 00:05:35;;;;;;;0.45;0.32;;;;;;;5.56;100.00;95337.25;1030385;28;20371;-74
2023/11/21 00:06:08;;;;;;;0.10;0.10;;;;;;;5.49;100.00;95331.44;1030318;28;20106;-74
2023/11/21 00:06:40;;;;;;;0.00;0.00;;;;;;;5.55;100.00;95336.47;1030427;28;20292;-73
2023/11/21 00:07:11;;;;;;;0.00;0.00;;;;;;;5.56;100.00;95342.47;1032506;28;21143;-74
2023/11/21 00:07:42;;;;;;;0.00;0.00;;;;;;;5.53;100.00;95332.53;1034502;28;20303;-74
2023/11/21 00:08:12;;;;;;;0.05;0.05;;;;;;;5.56;100.00;95337.25;1031377;28;20030;-74
2023/11/21 00:08:48;;;;;;;2.13;1.27;;;;;;;5.57;100.00;95333.66;1034889;28;20494;-73
2023/11/21 00:09:19;;;;;;;0.00;0.00;;;;;;;5.57;100.00;95333.66;1039388;28;20322;-73
2023/11/21 00:09:50;;;;;;;4.38;0.75;;;;;;;5.55;100.00;95335.69;1043579;28;20356;-73
2023/11/21 00:10:21;;;;;;;0.10;0.10;;;;;;;5.57;100.00;95333.66;1044181;28;20032;-73
2023/11/21 00:10:52;;;;;;;0.68;0.57;;;;;;;5.51;100.00;95329.41;1038512;28;20697;-74
2023/11/21 00:11:22;;;;;;;1.65;1.45;;;;;;;5.58;100.00;95330.00;1038239;28;20025;-73
2023/11/21 00:11:52;;;;;;;0.25;0.25;;;;;;;5.60;100.00;95333.13;1038625;28;20045;-74
2023/11/21 00:12:24;;;;;;;0.28;0.28;;;;;;;5.62;100.00;95325.88;1038641;28;20025;-72
2023/11/21 00:12:55;;;;;;;0.00;0.00;;;;;;;5.61;100.00;95335.50;1030429;28;20033;-73
2023/11/21 00:13:25;;;;;;;0.90;0.90;;;;;;;5.61;100.00;95332.13;1022727;28;20278;-73
2023/11/21 00:13:56;;;;;;;4.50;0.90;;;;;;;5.61;100.00;95335.50;1035837;28;20053;-72
2023/11/21 00:14:26;;;;;;;0.20;0.20;;;;;;;5.62;100.00;95331.09;1034532;28;20032;-74
2023/11/21 00:14:57;;;;;;;0.10;0.00;;;;;;;5.62;100.00;95336.28;1038367;28;20034;-74
2023/11/21 00:15:28;;;;;;;0.00;0.00;;;;;;;5.61;100.00;95324.31;1038277;28;20033;-74
2023/11/21 00:15:58;;;;;;;0.00;0.00;;;;;;;5.61;100.00;95335.50;1038536;28;20263;-73
2023/11/21 00:16:29;;;;;;;0.57;0.57;;;;;;;5.60;100.00;95328.75;1030241;28;20034;-74
2023/11/21 00:16:59;;;;;;;0.30;0.30;;;;;;;5.61;100.00;95325.09;1026537;28;20023;-74
2023/11/21 00:17:30;;;;;;;0.00;0.00;;;;;;;5.62;100.00;95333.69;1034382;28;20029;-75
2023/11/21 00:18:00;;;;;;;0.00;0.00;;;;;;;5.62;100.00;95331.09;1034619;28;20490;-73
2023/11/21 00:18:31;;;;;;;0.10;0.10;;;;;;;5.62;100.00;95331.09;1034259;28;20405;-74
2023/11/21 00:19:01;;;;;;;0.00;0.00;;;;;;;5.61;100.00;95322.50;1038527;28;20126;-73
2023/11/21 00:19:33;;;;;;;0.00;0.00;;;;;;;5.59;100.00;95318.56;1042658;28;20036;-75
2023/11/21 00:20:06;;;;;;;1.25;1.17;;;;;;;5.54;100.00;95318.50;1034913;28;20065;-74
2023/11/21 00:20:36;;;;;;;0.00;0.00;;;;;;;5.62;100.00;95325.88;1034241;28;20333;-74
2023/11/21 00:21:07;;;;;;;0.15;0.15;;;;;;;5.56;100.00;95321.63;1034423;28;20276;-74
2023/11/21 00:21:37;;;;;;;0.52;0.52;;;;;;;5.61;100.00;95327.72;1034009;28;20041;-73
2023/11/21 00:22:08;;;;;;;0.00;0.00;;;;;;;5.61;100.00;95329.53;1033977;28;20030;-74
2023/11/21 00:22:40;;;;;;;0.00;0.00;;;;;;;5.54;100.00;95321.91;1034450;28;20033;-75
2023/11/21 00:23:10;;;;;;;0.10;0.10;;;;;;;5.61;100.00;95319.13;1030525;28;20124;-74
2023/11/21 00:23:41;;;;;;;10.43;0.80;;;;;;;5.59;100.00;95321.94;1034702;28;20272;-74
2023/11/21 00:24:13;;;;;;;0.00;0.00;;;;;;;5.60;100.00;95333.13;1041639;28;20025;-75
2023/11/21 00:24:44;;;;;;;0.20;0.20;;;;;;;5.56;100.00;95321.63;1042905;28;20037;-73
2023/11/21 00:25:15;;;;;;;0.30;0.30;;;;;;;5.57;100.00;95329.22;1038420;28;20260;-72
2023/11/21 00:25:45;;;;;;;0.00;0.00;;;;;;;5.58;100.00;95330.00;1038436;28;20132;-72
2023/11/21 00:26:16;;;;;;;0.45;0.45;;;;;;;5.58;100.00;95327.41;1038562;28;20036;-73
2023/11/21 00:26:48;;;;;;;0.30;0.30;;;;;;;5.57;100.00;95329.22;1034796;28;20708;-74
2023/11/21 00:27:18;;;;;;;0.03;0.03;;;;;;;5.51;100.00;95313.78;1038354;28;20026;-73
2023/11/21 00:27:49;;;;;;;0.35;0.35;;;;;;;5.57;100.00;95328.44;1034364;28;20636;-72
2023/11/21 00:28:22;;;;;;;0.10;0.10;;;;;;;5.51;100.00;95319.00;1034774;28;20096;-74
2023/11/21 00:28:53;;;;;;;0.00;0.00;;;;;;;5.51;100.00;95319.78;1035093;28;20026;-73
2023/11/21 00:29:23;;;;;;;0.00;0.00;;;;;;;5.57;100.00;95323.22;1033162;28;20296;-72
2023/11/21 00:29:54;;;;;;;0.00;0.00;;;;;;;5.56;100.00;95335.44;1038435;28;20441;-71
2023/11/21 00:30:24;;;;;;;0.30;0.30;;;;;;;5.57;100.00;95328.44;1026932;28;20038;-73
2023/11/21 00:30:55;;;;;;;0.00;0.00;;;;;;;5.57;100.00;95331.81;1028832;28;22167;-75
2023/11/21 00:31:25;;;;;;;1.48;0.40;;;;;;;5.49;100.00;95321.03;1033951;28;20103;-73
2023/11/21 00:31:56;;;;;;;0.70;0.70;;;;;;;5.56;100.00;95326.84;1038428;28;20029;-73
2023/11/21 00:32:26;;;;;;;0.10;0.10;;;;;;;5.56;100.00;95330.22;1033194;28;20042;-73
2023/11/21 00:32:56;;;;;;;1.65;0.65;;;;;;;5.55;100.00;95314.88;1030402;28;20033;-73
2023/11/21 00:33:27;;;;;;;4.47;1.50;;;;;;;5.56;100.00;95326.84;1034473;28;20593;-73
2023/11/21 00:33:58;;;;;;;0.00;0.00;;;;;;;5.56;100.00;95326.84;1034422;28;20030;-74
2023/11/21 00:34:28;;;;;;;0.95;0.13;;;;;;;5.48;100.00;95315.03;1038096;28;20017;-73
2023/11/21 00:34:59;;;;;;;1.65;0.57;;;;;;;5.56;100.00;95321.63;1030311;28;20118;-73
2023/11/21 00:35:29;;;;;;;0.52;0.52;;;;;;;5.57;100.00;95323.22;1026348;28;20038;-73
2023/11/21 00:36:00;;;;;;;0.03;0.03;;;;;;;5.59;100.00;95326.38;1030456;28;20276;-73
2023/11/21 00:36:32;;;;;;;0.00;0.00;;;;;;;5.60;100.00;95323.53;1034539;28;20473;-73
2023/11/21 00:37:02;;;;;;;0.70;0.63;;;;;;;5.59;100.00;95321.16;1034951;28;20033;-73
2023/11/21 00:37:33;;;;;;;0.05;0.05;;;;;;;5.59;100.00;95326.38;1035714;28;20355;-73
2023/11/21 00:38:03;;;;;;;0.00;0.00;;;;;;;5.58;100.00;95324.81;1030437;28;20022;-72
2023/11/21 00:38:34;;;;;;;0.03;0.03;;;;;;;5.51;100.00;95309.38;1026462;28;20654;-72
2023/11/21 00:39:05;;;;;;;0.45;0.20;;;;;;;5.58;100.00;95327.41;1030394;28;20029;-73
2023/11/21 00:39:36;;;;;;;0.22;0.22;;;;;;;5.53;100.00;95319.50;1030320;28;20030;-73
2023/11/21 00:40:07;;;;;;;1.27;1.17;;;;;;;5.43;100.00;95307.16;1026493;28;20263;-73
2023/11/21 00:40:38;;;;;;;0.08;0.08;;;;;;;5.55;100.00;95328.66;1026375;28;20030;-73
2023/11/21 00:41:08;;;;;;;0.03;0.03;;;;;;;5.55;100.00;95327.88;1035170;28;20328;-70
2023/11/21 00:41:38;;;;;;;1.45;0.35;;;;;;;5.56;100.00;95326.84;1038447;28;20030;-74
2023/11/21 00:42:10;;;;;;;0.00;0.00;;;;;;;5.48;100.00;95319.47;1034362;28;20018;-72
2023/11/21 00:42:41;;;;;;;0.20;0.20;;;;;;;5.52;100.00;95334.34;1030513;28;20614;-74
2023/11/21 00:43:12;;;;;;;0.30;0.22;;;;;;;5.52;100.00;95330.97;1034592;28;20275;-73
2023/11/21 00:43:42;;;;;;;0.00;0.00;;;;;;;5.51;100.00;95329.41;1034566;28;20304;-73
2023/11/21 00:44:12;;;;;;;0.22;0.22;;;;;;;5.49;100.00;95334.03;1038480;28;20405;-73
2023/11/21 00:44:43;;;;;;;0.10;0.10;;;;;;;5.48;100.00;95329.88;1047445;28;20024;-72
2023/11/21 00:45:13;;;;;;;0.00;0.00;;;;;;;5.48;100.00;95325.44;1043126;28;20029;-72
2023/11/21 00:45:44;;;;;;;0.50;0.50;;;;;;;5.49;100.00;95328.84;1043228;28;20033;-73
2023/11/21 00:46:14;;;;;;;1.75;1.65;;;;;;;5.48;100.00;95329.88;1041990;28;20494;-74
2023/11/21 00:46:45;;;;;;;0.08;0.08;;;;;;;5.47;100.00;95334.28;1039358;28;20033;-73
2023/11/21 00:47:15;;;;;;;0.10;0.10;;;;;;;5.46;100.00;95324.91;1043497;28;20552;-74
2023/11/21 00:47:46;;;;;;;0.17;0.17;;;;;;;5.47;100.00;95331.69;1035172;28;20029;-75
2023/11/21 00:48:17;;;;;;;0.00;0.00;;;;;;;5.41;100.00;95315.22;1035349;28;20022;-75
2023/11/21 00:48:48;;;;;;;0.35;0.35;;;;;;;5.50;100.00;95331.22;1035322;28;20041;-74
2023/11/21 00:49:19;;;;;;;0.00;0.00;;;;;;;5.50;100.00;95333.81;1035777;28;20272;-73
2023/11/21 00:49:49;;;;;;;0.10;0.10;;;;;;;5.41;100.00;95322.25;1039202;28;20029;-73
2023/11/21 00:50:21;;;;;;;0.00;0.00;;;;;;;5.51;100.00;95334.59;1039977;28;20029;-74
2023/11/21 00:50:51;;;;;;;1.23;1.13;;;;;;;5.51;100.00;95330.19;1043434;28;20028;-73
2023/11/21 00:51:22;;;;;;;0.00;0.00;;;;;;;5.46;100.00;95327.50;1034516;28;20794;-74
2023/11/21 00:51:52;;;;;;;0.93;0.40;;;;;;;5.46;100.00;95330.09;1035055;28;20037;-76
2023/11/21 00:52:23;;;;;;;0.00;0.00;;;;;;;5.51;100.00;95332.78;1031218;28;20034;-73
2023/11/21 00:52:53;;;;;;;0.00;0.00;;;;;;;5.52;100.00;95330.97;1035060;28;20485;-73
2023/11/21 00:53:24;;;;;;;0.00;0.00;;;;;;;5.53;100.00;95337.72;1035106;28;20030;-72
2023/11/21 00:53:54;;;;;;;0.00;0.00;;;;;;;5.50;100.00;95338.22;1035375;28;20021;-75
2023/11/21 00:54:24;;;;;;;0.10;0.10;;;;;;;5.51;100.00;95340.59;1038662;28;20049;-73
2023/11/21 00:54:55;;;;;;;0.00;0.00;;;;;;;5.51;100.00;95337.19;1039255;28;20036;-76
2023/11/21 00:55:26;;;;;;;0.98;0.35;;;;;;;5.49;100.00;95342.63;1039318;28;20760;-72
2023/11/21 00:55:57;;;;;;;4.63;0.30;;;;;;;5.50;100.00;95344.22;1039528;28;20026;-72
2023/11/21 00:56:28;;;;;;;0.40;0.32;;;;;;;5.51;100.00;95342.41;1039312;28;20264;-76
2023/11/21 00:57:01;;;;;;;0.00;0.00;;;;;;;5.53;100.00;95348.13;1035619;28;20680;-72
2023/11/21 00:57:31;;;;;;;0.15;0.15;;;;;;;5.52;100.00;95347.34;1039402;28;20428;-74
2023/11/21 00:58:03;;;;;;;0.00;0.00;;;;;;;5.50;100.00;95344.22;1039185;28;20259;-74
2023/11/21 00:58:35;;;;;;;0.00;0.00;;;;;;;5.53;100.00;95342.94;1034120;28;20014;-72
2023/11/21 00:59:06;;;;;;;0.00;0.00;;;;;;;5.53;100.00;95342.94;1035340;28;20272;-73
2023/11/21 00:59:37;;;;;;;0.00;0.00;;;;;;;5.53;100.00;95342.94;1031236;28;20335;-73
2023/11/21 01:00:16;;;;;;;1.58;1.50;;;;;;;5.53;100.00;95342.94;1033918;28;20789;-74
2023/11/21 01:00:48;;;;;;;1.45;0.35;;;;;;;5.50;100.00;95339.03;1044932;28;20037;-73
2023/11/21 01:01:18;;;;;;;0.55;0.50;;;;;;;5.55;100.00;95343.50;1036054;28;20276;-74
2023/11/21 01:01:49;;;;;;;0.20;0.20;;;;;;;5.55;100.00;95346.09;1039243;28;20294;-73
2023/11/21 01:02:20;;;;;;;0.30;0.30;;;;;;;5.48;100.00;95335.06;1031084;28;20033;-74
2023/11/21 01:02:50;;;;;;;0.00;0.00;;;;;;;5.49;100.00;95339.25;1027915;28;20030;-73
2023/11/21 01:03:21;;;;;;;0.00;0.00;;;;;;;5.51;100.00;95337.19;1035326;28;20408;-75
2023/11/21 01:03:52;;;;;;;0.00;0.00;;;;;;;5.50;100.00;95328.63;1035411;28;20022;-73
2023/11/21 01:04:22;;;;;;;0.00;0.00;;;;;;;5.56;100.00;95342.47;1035029;28;20030;-73
2023/11/21 01:04:53;;;;;;;3.83;0.47;;;;;;;5.53;100.00;95335.13;1035315;28;20041;-74
2023/11/21 01:05:23;;;;;;;0.15;0.15;;;;;;;5.57;100.00;95349.25;1035020;28;20026;-73
2023/11/21 01:05:54;;;;;;;0.10;0.10;;;;;;;5.50;100.00;95343.41;1031217;28;20426;-73
2023/11/21 01:06:24;;;;;;;0.00;0.00;;;;;;;5.57;100.00;95354.47;1031220;28;20022;-75
2023/11/21 01:06:55;;;;;;;0.38;0.38;;;;;;;5.57;100.00;95344.06;1030406;28;20063;-73
2023/11/21 01:07:27;;;;;;;0.00;0.00;;;;;;;5.57;100.00;95344.06;1031366;28;20580;-73
2023/11/21 01:07:57;;;;;;;0.28;0.28;;;;;;;5.55;100.00;95340.91;1035421;28;20054;-74
2023/11/21 01:08:28;;;;;;;0.00;0.00;;;;;;;5.43;100.00;95320.16;1035606;28;20286;-74
2023/11/21 01:08:59;;;;;;;0.43;0.43;;;;;;;5.42;100.00;95316.78;1039531;28;20568;-74
2023/11/21 01:09:30;;;;;;;0.00;0.00;;;;;;;5.56;100.00;95337.25;1039379;28;20268;-74
2023/11/21 01:10:00;;;;;;;18.65;1.50;;;;;;;5.58;100.00;95343.81;1039473;28;20021;-74
2023/11/21 01:10:31;;;;;;;0.30;0.30;;;;;;;5.53;100.00;95332.53;1039199;28;20021;-74
2023/11/21 01:11:01;;;;;;;1.55;0.45;;;;;;;5.55;100.00;95338.28;1039375;28;20088;-74
2023/11/21 01:11:35;;;;;;;0.00;0.00;;;;;;;5.60;100.00;95338.34;1038655;28;20024;-73
2023/11/21 01:12:06;;;;;;;0.52;0.47;;;;;;;5.54;100.00;95337.50;1039216;28;20485;-75
2023/11/21 01:12:37;;;;;;;0.00;0.00;;;;;;;5.54;100.00;95336.72;1035000;28;20268;-74
2023/11/21 01:13:08;;;;;;;0.00;0.00;;;;;;;5.59;100.00;95347.19;1034936;28;20259;-75
2023/11/21 01:13:39;;;;;;;0.43;0.40;;;;;;;5.54;100.00;95341.94;1035086;28;20045;-73
2023/11/21 01:14:10;;;;;;;0.20;0.20;;;;;;;5.59;100.00;95342.75;1035290;28;20022;-74
2023/11/21 01:14:40;;;;;;;2.08;0.40;;;;;;;5.58;100.00;95349.00;1035651;28;20265;-74
2023/11/21 01:15:12;;;;;;;0.10;0.10;;;;;;;5.60;100.00;95346.97;1043140;28;20275;-73
2023/11/21 01:15:42;;;;;;;0.08;0.08;;;;;;;5.58;100.00;95348.22;1031573;28;20034;-74
2023/11/21 01:16:13;;;;;;;0.20;0.20;;;;;;;5.59;100.00;95341.97;1027070;28;20849;-75
2023/11/21 01:16:43;;;;;;;1.35;0.82;;;;;;;5.54;100.00;95337.50;1026871;28;20035;-74
2023/11/21 01:17:13;;;;;;;1.35;0.75;;;;;;;5.59;100.00;95342.75;1032815;28;20037;-74
2023/11/21 01:17:44;;;;;;;0.00;0.00;;;;;;;5.54;100.00;95339.31;1035376;28;20036;-73
2023/11/21 01:18:14;;;;;;;0.00;0.00;;;;;;;5.58;100.00;95341.19;1035132;28;20060;-73
2023/11/21 01:18:45;;;;;;;1.02;0.43;;;;;;;5.59;100.00;95347.19;1036006;28;20052;-73
2023/11/21 01:19:15;;;;;;;4.63;1.00;;;;;;;5.57;100.00;95337.03;1039257;28;20069;-75
2023/11/21 01:19:46;;;;;;;0.52;0.52;;;;;;;5.59;100.00;95340.16;1039358;28;20033;-73
2023/11/21 01:20:17;;;;;;;0.10;0.10;;;;;;;5.60;100.00;95344.34;1038993;28;20038;-74
2023/11/21 01:20:47;;;;;;;0.00;0.00;;;;;;;5.60;100.00;95343.53;1039225;28;20049;-74
2023/11/21 01:21:18;;;;;;;0.10;0.10;;;;;;;5.59;100.00;95345.38;1034349;28;20265;-74
2023/11/21 01:21:48;;;;;;;0.00;0.00;;;;;;;5.59;100.00;95340.16;1035335;28;20046;-75
2023/11/21 01:22:25;;;;;;;0.00;0.00;;;;;;;5.59;100.00;95336.78;1034951;28;20033;-74
2023/11/21 01:22:55;;;;;;;0.08;0.08;;;;;;;5.59;100.00;95336.78;1041134;28;20124;-74
2023/11/21 01:23:26;;;;;;;0.00;0.00;;;;;;;5.60;100.00;95348.75;1047462;28;20270;-73
2023/11/21 01:23:57;;;;;;;0.10;0.10;;;;;;;5.58;100.00;95343.81;1043012;28;20139;-75
2023/11/21 01:24:27;;;;;;;0.00;0.00;;;;;;;5.58;100.00;95343.03;1039249;28;20341;-74
2023/11/21 01:24:58;;;;;;;0.20;0.20;;;;;;;5.58;100.00;95343.03;1035156;28;20034;-74
2023/11/21 01:25:28;;;;;;;0.00;0.00;;;;;;;5.56;100.00;95345.06;1031131;28;20034;-72
2023/11/21 01:25:59;;;;;;;0.00;0.00;;;;;;;5.55;100.00;95348.69;1039095;28;20032;-74
2023/11/21 01:26:29;;;;;;;0.28;0.28;;;;;;;5.56;100.00;95345.06;1039049;28;20060;-73
2023/11/21 01:26:59;;;;;;;0.00;0.00;;;;;;;5.56;100.00;95342.47;1039228;28;20034;-74
2023/11/21 01:27:30;;;;;;;0.35;0.20;;;;;;;5.53;100.00;95343.72;1032143;28;20046;-73
2023/11/21 01:28:00;;;;;;;0.00;0.00;;;;;;;5.55;100.00;95340.91;1031174;28;20681;-73
2023/11/21 01:28:31;;;;;;;0.10;0.10;;;;;;;5.54;100.00;95349.72;1030897;28;20445;-73
2023/11/21 01:29:01;;;;;;;3.97;0.32;;;;;;;5.43;100.00;95325.38;1033314;28;20042;-72
2023/11/21 01:29:32;;;;;;;0.00;0.00;;;;;;;5.48;100.00;95342.88;1043196;28;20033;-73
2023/11/21 01:30:03;;;;;;;0.00;0.00;;;;;;;5.48;100.00;95340.28;1035160;28;20099;-74
2023/11/21 01:30:33;;;;;;;0.00;0.00;;;;;;;5.44;100.00;95335.56;1026910;28;20019;-73
2023/11/21 01:31:04;;;;;;;0.52;0.47;;;;;;;5.53;100.00;95348.13;1030964;28;20069;-74
2023/11/21 01:31:34;;;;;;;0.00;0.00;;;;;;;5.52;100.00;95341.38;1030370;28;20513;-72
2023/11/21 01:32:06;;;;;;;0.00;0.00;;;;;;;5.50;100.00;95343.41;1031011;28;20029;-73
2023/11/21 01:32:37;;;;;;;0.00;0.00;;;;;;;5.48;100.00;95335.88;1031010;28;20105;-73
2023/11/21 01:33:08;;;;;;;0.90;0.90;;;;;;;5.50;100.00;95346.00;1031230;28;20344;-75
2023/11/21 01:33:39;;;;;;;0.00;0.00;;;;;;;5.49;100.00;95341.84;1031367;28;20046;-73
2023/11/21 01:34:09;;;;;;;0.10;0.10;;;;;;;5.47;100.00;95343.91;1027525;28;20266;-75
2023/11/21 01:34:39;;;;;;;1.05;0.98;;;;;;;5.47;100.00;95349.13;1035097;28;20068;-73
2023/11/21 01:35:10;;;;;;;0.75;0.30;;;;;;;5.46;100.00;95343.09;1039343;28;20029;-73
2023/11/21 01:35:40;;;;;;;0.00;0.00;;;;;;;5.48;100.00;95345.47;1039112;28;20140;-73
2023/11/21 01:36:11;;;;;;;0.20;0.20;;;;;;;5.48;100.00;95340.28;1030886;28;20019;-74
2023/11/21 01:36:41;;;;;;;0.30;0.30;;;;;;;5.47;100.00;95349.13;1027221;28;20031;-73
2023/11/21 01:37:12;;;;;;;0.08;0.08;;;;;;;5.43;100.00;95343.59;1030929;28;20029;-73
2023/11/21 01:37:42;;;;;;;0.00;0.00;;;;;;;5.34;100.00;95330.22;1034343;28;20030;-72
2023/11/21 01:38:14;;;;;;;0.00;0.00;;;;;;;5.31;100.00;95324.69;1030630;28;20042;-73
2023/11/21 01:38:45;;;;;;;0.05;0.05;;;;;;;5.33;100.00;95336.44;1027264;28;20047;-73
2023/11/21 01:39:19;;;;;;;1.60;0.93;;;;;;;5.30;100.00;95334.31;1028526;28;20270;-72
2023/11/21 01:39:54;;;;;;;0.10;0.10;;;;;;;5.29;100.00;95335.31;1036187;28;20276;-73
2023/11/21 01:40:25;;;;;;;0.00;0.00;;;;;;;5.31;100.00;95346.28;1032628;28;20633;-73
2023/11/21 01:40:55;;;;;;;0.00;0.00;;;;;;;5.33;100.00;95351.25;1036264;28;20265;-75
2023/11/21 01:41:29;;;;;;;0.10;0.10;;;;;;;5.31;100.00;95345.50;1035806;28;20440;-74
2023/11/21 01:41:59;;;;;;;0.05;0.03;;;;;;;5.30;100.00;95343.91;1035340;28;20030;-76
2023/11/21 01:42:30;;;;;;;0.00;0.00;;;;;;;5.17;100.00;95324.25;1031403;28;20803;-74
2023/11/21 01:43:03;;;;;;;0.20;0.20;;;;;;;5.10;100.00;95324.41;1023034;29;20034;-74
2023/11/21 01:43:33;;;;;;;0.00;0.00;;;;;;;5.20;100.00;95339.38;1027014;28;20026;-74
2023/11/21 01:44:07;;;;;;;0.00;0.00;;;;;;;5.23;100.00;95351.91;1022963;29;20275;-73
2023/11/21 01:44:38;;;;;;;0.00;0.00;;;;;;;5.25;100.00;95347.25;1031055;28;20026;-73
2023/11/21 01:45:09;;;;;;;0.00;0.00;;;;;;;5.17;100.00;95345.06;1030326;28;20277;-73
2023/11/21 01:45:40;;;;;;;0.00;0.00;;;;;;;5.23;100.00;95351.09;1031698;28;20030;-73
2023/11/21 01:46:10;;;;;;;0.00;0.00;;;;;;;5.22;100.00;95347.72;1031076;28;20274;-74
2023/11/21 01:46:41;;;;;;;0.08;0.08;;;;;;;5.18;100.00;95341.41;1031241;28;20081;-74
2023/11/21 01:47:12;;;;;;;0.28;0.28;;;;;;;5.23;100.00;95349.31;1026853;28;20502;-75
2023/11/21 01:47:42;;;;;;;0.00;0.00;;;;;;;5.25;100.00;95354.25;1026953;28;20270;-72
2023/11/21 01:48:13;;;;;;;0.00;0.00;;;;;;;5.18;100.00;95344.03;1026827;28;20081;-73
2023/11/21 01:48:45;;;;;;;0.00;0.00;;;;;;;5.25;100.00;95351.66;1027148;28;20045;-74
2023/11/21 01:49:15;;;;;;;2.72;1.38;;;;;;;5.26;100.00;95351.41;1035053;28;20470;-74
2023/11/21 01:49:46;;;;;;;3.30;0.45;;;;;;;5.27;100.00;95355.59;1034739;28;20276;-72
2023/11/21 01:50:17;;;;;;;3.03;1.17;;;;;;;5.19;100.00;95335.19;1034791;28;20034;-74
2023/11/21 01:50:48;;;;;;;0.00;0.00;;;;;;;5.26;100.00;95343.59;1035304;28;20026;-74
2023/11/21 01:51:19;;;;;;;0.00;0.00;;;;;;;5.24;100.00;95350.09;1032314;28;20501;-73
2023/11/21 01:51:49;;;;;;;0.00;0.00;;;;;;;5.27;100.00;95352.22;1030980;28;20262;-74
2023/11/21 01:52:20;;;;;;;0.22;0.22;;;;;;;5.24;100.00;95350.09;1022825;29;20027;-74
2023/11/21 01:52:50;;;;;;;0.15;0.15;;;;;;;5.22;100.00;95341.72;1026864;28;20026;-72
2023/11/21 01:53:21;;;;;;;0.10;0.10;;;;;;;5.23;100.00;95344.09;1026999;28;20058;-73
2023/11/21 01:53:51;;;;;;;0.00;0.00;;;;;;;5.20;100.00;95341.97;1030902;28;20026;-75
2023/11/21 01:54:21;;;;;;;4.35;0.47;;;;;;;5.24;100.00;95345.69;1026874;28;20130;-73
2023/11/21 01:54:52;;;;;;;0.20;0.20;;;;;;;5.27;100.00;95350.41;1030680;28;20030;-73
2023/11/21 01:55:22;;;;;;;0.00;0.00;;;;;;;5.25;100.00;95347.25;1030872;28;20030;-73
2023/11/21 01:55:53;;;;;;;0.00;0.00;;;;;;;5.26;100.00;95353.22;1026803;28;20023;-74
2023/11/21 01:56:23;;;;;;;0.00;0.00;;;;;;;5.25;100.00;95352.44;1024709;28;20031;-74
2023/11/21 01:56:54;;;;;;;0.08;0.08;;;;;;;5.20;100.00;95339.38;1027146;28;20031;-74
2023/11/21 01:57:24;;;;;;;0.10;0.10;;;;;;;5.18;100.00;95337.00;1031148;28;20486;-75
2023/11/21 01:57:58;;;;;;;0.00;0.00;;;;;;;5.28;100.00;95351.97;1026896;28;20502;-75
2023/11/21 01:58:28;;;;;;;0.00;0.00;;;;;;;5.27;100.00;95347.03;1029604;28;20122;-72
2023/11/21 01:58:58;;;;;;;0.00;0.00;;;;;;;5.22;100.00;95345.13;1026990;28;20701;-74
2023/11/21 01:59:33;;;;;;;0.00;0.00;;;;;;;5.19;100.00;95338.56;1031362;28;20025;-73
2023/11/21 02:00:15;;;;;;;0.00;0.00;;;;;;;5.27;100.00;95353.00;1027403;28;20058;-75
2023/11/21 02:00:45;;;;;;;0.00;0.00;;;;;;;5.27;100.00;95353.00;1030957;28;20273;-75
2023/11/21 02:01:18;;;;;;;0.00;0.00;;;;;;;5.28;100.00;95353.78;1026320;28;20269;-73
2023/11/21 02:01:50;;;;;;;0.65;0.65;;;;;;;5.26;100.00;95351.41;1034383;28;20391;-72
2023/11/21 02:02:20;;;;;;;0.65;0.65;;;;;;;5.24;100.00;95358.69;1041107;28;20679;-74
2023/11/21 02:02:51;;;;;;;0.30;0.30;;;;;;;5.21;100.00;95346.16;1038954;28;20265;-72
2023/11/21 02:03:21;;;;;;;0.00;0.00;;;;;;;5.27;100.00;95355.59;1030909;28;20480;-73
2023/11/21 02:03:51;;;;;;;0.70;0.43;;;;;;;5.28;100.00;95353.78;1030667;28;20596;-75
2023/11/21 02:04:22;;;;;;;0.00;0.00;;;;;;;5.29;100.00;95353.53;1030896;28;20081;-72
2023/11/21 02:04:52;;;;;;;0.00;0.00;;;;;;;5.27;100.00;95353.00;1034786;28;20037;-73
2023/11/21 02:05:23;;;;;;;0.00;0.00;;;;;;;5.26;100.00;95354.00;1034955;28;20115;-73
2023/11/21 02:05:53;;;;;;;0.00;0.00;;;;;;;5.26;100.00;95355.84;1035019;28;20116;-73
2023/11/21 02:06:24;;;;;;;0.08;0.08;;;;;;;5.23;100.00;95343.31;1026932;28;20022;-73
2023/11/21 02:06:56;;;;;;;0.00;0.00;;;;;;;5.27;100.00;95350.41;1030932;28;20502;-74
2023/11/21 02:07:26;;;;;;;0.00;0.00;;;;;;;5.27;100.00;95360.03;1038071;28;20144;-74
2023/11/21 02:07:56;;;;;;;0.00;0.00;;;;;;;5.27;100.00;95355.59;1034846;28;20648;-74
2023/11/21 02:08:27;;;;;;;0.05;0.05;;;;;;;5.22;100.00;95345.13;1031602;28;20033;-73
2023/11/21 02:08:59;;;;;;;0.10;0.10;;;;;;;5.26;100.00;95348.03;1030751;28;20022;-74
2023/11/21 02:09:31;;;;;;;0.00;0.00;;;;;;;5.26;100.00;95353.22;1034755;28;20038;-75
2023/11/21 02:10:01;;;;;;;0.00;0.00;;;;;;;5.25;100.00;95347.25;1035963;28;20268;-74
2023/11/21 02:10:32;;;;;;;0.00;0.00;;;;;;;5.25;100.00;95351.66;1037604;28;20269;-73
2023/11/21 02:11:02;;;;;;;0.10;0.10;;;;;;;5.20;100.00;95344.59;1038977;28;20037;-76
2023/11/21 02:11:34;;;;;;;0.00;0.00;;;;;;;5.29;100.00;95352.75;1034125;28;20112;-72
2023/11/21 02:12:05;;;;;;;0.28;0.28;;;;;;;5.28;100.00;95356.38;1027247;28;20034;-74
2023/11/21 02:12:36;;;;;;;0.10;0.10;;;;;;;5.26;100.00;95354.00;1026830;28;20305;-74
2023/11/21 02:13:06;;;;;;;0.20;0.20;;;;;;;5.29;100.00;95350.16;1022840;28;20039;-74
2023/11/21 02:13:37;;;;;;;0.00;0.00;;;;;;;5.28;100.00;95351.97;1026868;28;20398;-74
2023/11/21 02:14:09;;;;;;;0.00;0.00;;;;;;;5.28;100.00;95346.78;1030931;28;20117;-75
2023/11/21 02:14:39;;;;;;;0.10;0.10;;;;;;;5.29;100.00;95350.16;1031495;28;20034;-73
2023/11/21 02:15:14;;;;;;;0.00;0.00;;;;;;;5.27;100.00;95345.19;1034804;28;20767;-74
2023/11/21 02:15:45;;;;;;;0.00;0.00;;;;;;;5.25;100.00;95342.03;1022729;28;20114;-73
2023/11/21 02:16:15;;;;;;;0.03;0.03;;;;;;;5.32;100.00;95339.28;1026372;28;20698;-75
2023/11/21 02:16:49;;;;;;;0.00;0.00;;;;;;;5.26;100.00;95342.81;1030776;28;20026;-73
2023/11/21 02:17:20;;;;;;;0.00;0.00;;;;;;;5.24;100.00;95340.47;1033411;28;20034;-73
2023/11/21 02:17:53;;;;;;;0.00;0.00;;;;;;;5.27;100.00;95339.22;1035382;28;20768;-74
2023/11/21 02:18:24;;;;;;;0.57;0.57;;;;;;;5.30;100.00;95344.72;1034921;28;20264;-73
2023/11/21 02:18:54;;;;;;;3.10;0.20;;;;;;;5.30;100.00;95339.53;1035353;28;20268;-75
2023/11/21 02:19:29;;;;;;;0.00;0.00;;;;;;;5.28;100.00;95346.78;1031183;28;20014;-74
2023/11/21 02:20:00;;;;;;;0.00;0.00;;;;;;;5.27;100.00;95340.00;1032019;28;20015;-75
2023/11/21 02:20:31;;;;;;;0.38;0.20;;;;;;;5.28;100.00;95346.00;1030669;28;20265;-73
2023/11/21 02:21:04;;;;;;;0.00;0.00;;;;;;;5.27;100.00;95342.59;1032806;28;20027;-75
2023/11/21 02:21:36;;;;;;;0.03;0.03;;;;;;;5.28;100.00;95341.56;1035510;28;20256;-73
2023/11/21 02:22:06;;;;;;;0.00;0.00;;;;;;;5.27;100.00;95339.22;1036227;28;20271;-73
2023/11/21 02:22:37;;;;;;;0.57;0.57;;;;;;;5.28;100.00;95349.38;1034965;28;20280;-73
2023/11/21 02:23:07;;;;;;;0.00;0.00;;;;;;;5.24;100.00;95324.88;1030415;28;20089;-75
2023/11/21 02:23:42;;;;;;;0.15;0.15;;;;;;;5.29;100.00;95331.94;1027203;28;20490;-74
2023/11/21 02:24:13;;;;;;;1.15;0.40;;;;;;;5.30;100.00;95336.13;1029114;28;20090;-73
2023/11/21 02:24:43;;;;;;;0.05;0.05;;;;;;;5.29;100.00;95332.72;1031331;28;20266;-72
2023/11/21 02:25:14;;;;;;;0.00;0.00;;;;;;;5.30;100.00;95343.91;1032756;28;20261;-73
2023/11/21 02:25:44;;;;;;;0.30;0.30;;;;;;;5.31;100.00;95335.88;1039650;28;20021;-73
2023/11/21 02:26:16;;;;;;;0.10;0.10;;;;;;;5.32;100.00;95332.25;1039426;28;20018;-72